createdAt,value
2022-08-27T00:02:18.227Z,101575.72
2022-08-27T00:04:47.514Z,101565.25
2022-08-27T00:07:16.633Z,101567.44
2022-08-27T00:09:45.106Z,101570.06
2022-08-27T00:12:13.640Z,101560.03
2022-08-27T00:14:42.034Z,101555.13
2022-08-27T00:17:11.238Z,101555.94
2022-08-27T00:19:40.661Z,101569.75
2022-08-27T00:22:10.197Z,101546.00
2022-08-27T00:24:46.389Z,101547.81
2022-08-27T00:27:18.535Z,101547.91
2022-08-27T00:29:48.232Z,101543.06
2022-08-27T00:32:17.062Z,101548.19
2022-08-27T00:34:45.956Z,101550.47
2022-08-27T00:37:14.794Z,101541.91
2022-08-27T00:39:43.339Z,101551.13
2022-08-27T00:42:13.203Z,101548.91
2022-08-27T00:44:41.695Z,101550.13
2022-08-27T00:47:17.076Z,101547.03
2022-08-27T00:50:08.012Z,101548.34
2022-08-27T00:52:54.509Z,101553.81
2022-08-27T00:55:28.725Z,101553.34
2022-08-27T00:58:09.255Z,101549.22
2022-08-27T01:00:38.085Z,101551.25
2022-08-27T01:03:07.506Z,101548.81
2022-08-27T01:05:36.978Z,101545.97
2022-08-27T01:08:14.726Z,101549.50
2022-08-27T01:10:44.204Z,101546.41
2022-08-27T01:13:16.542Z,101538.34
2022-08-27T01:15:46.667Z,101539.19
2022-08-27T01:18:16.042Z,101543.41
2022-08-27T01:20:56.432Z,101545.69
2022-08-27T01:23:50.744Z,101539.91
2022-08-27T01:26:20.526Z,101540.50
2022-08-27T01:28:49.399Z,101536.50
2022-08-27T01:31:17.914Z,101540.09
2022-08-27T01:34:00.386Z,101539.69
2022-08-27T01:36:29.740Z,101544.34
2022-08-27T01:38:58.722Z,101537.84
2022-08-27T01:41:27.409Z,101540.75
2022-08-27T01:43:55.979Z,101536.56
2022-08-27T01:46:27.737Z,101546.59
2022-08-27T01:48:56.392Z,101538.63
2022-08-27T01:51:24.827Z,101541.38
2022-08-27T01:53:53.532Z,101544.09
2022-08-27T01:56:22.053Z,101535.91
2022-08-27T01:58:50.503Z,101538.63
2022-08-27T02:01:19.575Z,101533.56
2022-08-27T02:03:49.372Z,101533.38
2022-08-27T02:06:17.830Z,101527.50
2022-08-27T02:08:46.590Z,101529.38
2022-08-27T02:11:15.100Z,101522.50
2022-08-27T02:13:43.548Z,101520.59
2022-08-27T02:16:13.211Z,101526.00
2022-08-27T02:18:42.654Z,101528.97
2022-08-27T02:21:11.819Z,101527.50
2022-08-27T02:23:42.048Z,101525.16
2022-08-27T02:26:10.819Z,101524.63
2022-08-27T02:28:39.251Z,101526.66
2022-08-27T02:31:07.963Z,101519.13
2022-08-27T02:33:36.515Z,101520.59
2022-08-27T02:36:06.072Z,101522.72
2022-08-27T02:38:35.064Z,101525.22
2022-08-27T02:41:03.622Z,101515.88
2022-08-27T02:43:32.116Z,101528.00
2022-08-27T02:46:01.515Z,101513.50
2022-08-27T02:48:30.212Z,101519.91
2022-08-27T02:50:58.629Z,101521.00
2022-08-27T02:53:28.476Z,101521.44
2022-08-27T02:55:56.927Z,101513.53
2022-08-27T02:58:25.780Z,101508.50
2022-08-27T03:00:54.326Z,101521.91
2022-08-27T03:03:22.898Z,101513.75
2022-08-27T03:05:52.586Z,101516.47
2022-08-27T03:08:21.015Z,101517.13
2022-08-27T03:10:50.541Z,101523.09
2022-08-27T03:13:19.142Z,101521.03
2022-08-27T03:15:48.165Z,101518.78
2022-08-27T03:18:19.670Z,101511.25
2022-08-27T03:20:53.801Z,101510.41
2022-08-27T03:23:25.312Z,101515.63
2022-08-27T03:25:58.218Z,101524.56
2022-08-27T03:28:32.917Z,101519.56
2022-08-27T03:31:05.705Z,101519.41
2022-08-27T03:33:37.818Z,101520.66
2022-08-27T03:36:07.433Z,101520.22
2022-08-27T03:38:36.421Z,101521.13
2022-08-27T03:41:06.552Z,101512.09
2022-08-27T03:43:35.548Z,101515.66
2022-08-27T03:46:04.059Z,101520.91
2022-08-27T03:48:34.043Z,101519.81
2022-08-27T03:51:13.405Z,101524.41
2022-08-27T03:53:44.367Z,101536.56
2022-08-27T03:56:14.539Z,101523.16
2022-08-27T03:58:42.957Z,101523.53
2022-08-27T04:01:11.588Z,101526.41
2022-08-27T04:03:40.165Z,101526.47
2022-08-27T04:06:10.446Z,101520.75
2022-08-27T04:08:38.933Z,101518.84
2022-08-27T04:11:07.786Z,101525.16
2022-08-27T04:13:36.711Z,101527.22
2022-08-27T04:16:05.932Z,101529.44
2022-08-27T04:18:34.423Z,101519.34
2022-08-27T04:21:13.795Z,101519.16
2022-08-27T04:23:43.245Z,101511.47
2022-08-27T04:26:12.198Z,101521.09
2022-08-27T04:28:40.756Z,101520.25
2022-08-27T04:31:16.622Z,101516.91
2022-08-27T04:33:50.780Z,101525.50
2022-08-27T04:36:20.511Z,101521.31
2022-08-27T04:38:49.803Z,101525.31
2022-08-27T04:41:26.382Z,101527.00
2022-08-27T04:43:57.756Z,101536.41
2022-08-27T04:46:30.501Z,101536.00
2022-08-27T04:49:01.475Z,101542.69
2022-08-27T04:51:31.156Z,101531.56
2022-08-27T04:54:02.868Z,101533.66
2022-08-27T04:56:31.750Z,101536.63
2022-08-27T04:59:03.438Z,101531.16
2022-08-27T05:01:32.171Z,101538.72
2022-08-27T05:04:00.765Z,101544.06
2022-08-27T05:06:29.853Z,101535.53
2022-08-27T05:08:59.008Z,101535.34
2022-08-27T05:11:32.209Z,101541.63
2022-08-27T05:14:09.533Z,101543.72
2022-08-27T05:16:38.186Z,101532.81
2022-08-27T05:19:09.658Z,101536.78
2022-08-27T05:21:40.178Z,101538.25
2022-08-27T05:24:08.717Z,101542.69
2022-08-27T05:26:37.834Z,101542.91
2022-08-27T05:29:06.627Z,101537.44
2022-08-27T05:31:35.909Z,101542.25
2022-08-27T05:34:10.564Z,101549.16
2022-08-27T05:36:48.921Z,101550.38
2022-08-27T05:39:17.790Z,101544.31
2022-08-27T05:41:46.519Z,101548.88
2022-08-27T05:47:05.668Z,101555.47
2022-08-27T05:49:34.132Z,101549.28
2022-08-27T05:52:02.830Z,101550.75
2022-08-27T05:54:31.381Z,101553.88
2022-08-27T05:56:59.822Z,101544.38
2022-08-27T05:59:47.888Z,101554.31
2022-08-27T06:02:16.356Z,101550.56
2022-08-27T06:04:44.790Z,101557.41
2022-08-27T06:07:13.807Z,101552.59
2022-08-27T06:09:43.360Z,101564.16
2022-08-27T06:12:12.111Z,101563.16
2022-08-27T06:14:40.573Z,101563.97
2022-08-27T06:17:09.103Z,101559.72
2022-08-27T06:19:37.817Z,101572.53
2022-08-27T06:22:10.717Z,101574.72
2022-08-27T06:24:41.445Z,101555.31
2022-08-27T06:27:14.090Z,101562.53
2022-08-27T06:29:43.629Z,101558.94
2022-08-27T06:32:14.277Z,101561.59
2022-08-27T06:34:43.079Z,101572.16
2022-08-27T06:37:11.547Z,101565.69
2022-08-27T06:39:40.094Z,101565.59
2022-08-27T06:42:13.225Z,101568.84
2022-08-27T06:44:42.033Z,101568.94
2022-08-27T06:47:10.700Z,101568.06
2022-08-27T06:49:41.095Z,101564.28
2022-08-27T06:52:09.489Z,101565.28
2022-08-27T06:54:39.730Z,101565.16
2022-08-27T06:57:08.202Z,101563.59
2022-08-27T06:59:36.587Z,101559.34
2022-08-27T07:02:07.577Z,101561.00
2022-08-27T07:04:36.255Z,101568.03
2022-08-27T07:07:04.821Z,101571.75
2022-08-27T07:09:34.079Z,101573.78
2022-08-27T07:12:03.809Z,101580.06
2022-08-27T07:14:37.123Z,101572.19
2022-08-27T07:17:10.722Z,101572.38
2022-08-27T07:19:40.909Z,101575.16
2022-08-27T07:22:10.759Z,101571.34
2022-08-27T07:24:40.046Z,101575.53
2022-08-27T07:27:08.712Z,101571.75
2022-08-27T07:29:37.208Z,101581.97
2022-08-27T07:32:05.751Z,101582.94
2022-08-27T07:34:34.191Z,101585.81
2022-08-27T07:37:02.668Z,101591.13
2022-08-27T07:39:31.231Z,101584.69
2022-08-27T07:42:18.395Z,101586.06
2022-08-27T07:44:47.640Z,101582.19
2022-08-27T07:47:16.073Z,101589.28
2022-08-27T07:49:44.628Z,101590.25
2022-08-27T07:52:13.196Z,101587.94
2022-08-27T07:54:42.317Z,101593.06
2022-08-27T07:57:11.584Z,101592.75
2022-08-27T07:59:40.043Z,101594.63
2022-08-27T08:02:08.595Z,101594.47
2022-08-27T08:04:37.196Z,101587.72
2022-08-27T08:07:05.672Z,101595.66
2022-08-27T08:09:34.134Z,101588.59
2022-08-27T08:12:02.853Z,101596.00
2022-08-27T08:14:32.221Z,101591.75
2022-08-27T08:17:02.337Z,101597.81
2022-08-27T08:19:32.886Z,101587.00
2022-08-27T08:22:04.991Z,101594.97
2022-08-27T08:24:35.369Z,101598.84
2022-08-27T08:27:07.456Z,101598.78
2022-08-27T08:29:37.516Z,101607.41
2022-08-27T08:32:06.749Z,101606.09
2022-08-27T08:34:35.934Z,101616.81
2022-08-27T08:37:06.083Z,101610.41
2022-08-27T08:39:36.211Z,101613.97
2022-08-27T08:42:07.651Z,101608.63
2022-08-27T08:44:48.503Z,101612.22
2022-08-27T08:47:22.244Z,101611.91
2022-08-27T08:50:08.178Z,101607.44
2022-08-27T08:52:50.538Z,101611.81
2022-08-27T08:55:47.429Z,101619.66
2022-08-27T08:58:27.916Z,101610.22
2022-08-27T09:01:01.237Z,101618.50
2022-08-27T09:03:33.009Z,101620.00
2022-08-27T09:06:07.236Z,101618.50
2022-08-27T09:08:42.597Z,101619.88
2022-08-27T09:11:30.221Z,101622.25
2022-08-27T09:14:03.096Z,101626.97
2022-08-27T09:16:32.582Z,101624.44
2022-08-27T09:19:02.601Z,101613.81
2022-08-27T09:21:55.757Z,101619.91
2022-08-27T09:24:49.758Z,101628.06
2022-08-27T09:27:20.168Z,101612.72
2022-08-27T09:29:54.952Z,101623.75
2022-08-27T09:32:31.472Z,101628.94
2022-08-27T09:35:03.140Z,101626.75
2022-08-27T09:37:39.931Z,101625.13
2022-08-27T09:40:23.164Z,101627.72
2022-08-27T09:42:55.914Z,101618.88
2022-08-27T09:45:30.087Z,101614.53
2022-08-27T09:48:22.680Z,101611.06
2022-08-27T09:50:54.791Z,101619.19
2022-08-27T09:53:30.883Z,101621.16
2022-08-27T09:56:03.147Z,101620.31
2022-08-27T09:58:46.731Z,101619.53
2022-08-27T10:01:27.586Z,101629.09
2022-08-27T10:04:12.613Z,101630.16
2022-08-27T10:06:47.094Z,101627.66
2022-08-27T10:09:21.811Z,101616.84
2022-08-27T10:12:08.660Z,101613.31
2022-08-27T10:14:44.251Z,101609.72
2022-08-27T10:17:23.366Z,101620.66
2022-08-27T10:20:30.457Z,101621.56
2022-08-27T10:23:23.909Z,101613.03
2022-08-27T10:26:09.075Z,101615.69
2022-08-27T10:28:54.406Z,101615.59
2022-08-27T10:31:47.776Z,101615.78
2022-08-27T10:34:28.152Z,101608.31
2022-08-27T10:37:40.467Z,101606.63
2022-08-27T10:40:19.690Z,101603.50
2022-08-27T10:42:48.101Z,101609.88
2022-08-27T10:45:46.166Z,101603.09
2022-08-27T10:48:31.078Z,101614.44
2022-08-27T10:51:08.726Z,101602.63
2022-08-27T10:53:58.443Z,101607.53
2022-08-27T10:56:44.573Z,101608.22
2022-08-27T10:59:38.718Z,101609.00
2022-08-27T11:02:36.687Z,101596.50
2022-08-27T11:05:20.534Z,101604.75
2022-08-27T11:07:55.733Z,101603.50
2022-08-27T11:10:30.915Z,101604.16
2022-08-27T11:13:08.432Z,101604.03
2022-08-27T11:15:41.613Z,101604.50
2022-08-27T11:18:19.263Z,101601.63
2022-08-27T11:21:10.407Z,101599.91
2022-08-27T11:23:54.495Z,101596.56
2022-08-27T11:26:23.153Z,101601.06
2022-08-27T11:28:59.555Z,101597.22
2022-08-27T11:31:38.202Z,101591.25
2022-08-27T11:35:02.098Z,101584.97
2022-08-27T11:38:12.873Z,101589.53
2022-08-27T11:41:02.034Z,101589.59
2022-08-27T11:43:35.329Z,101596.41
2022-08-27T11:46:08.326Z,101601.69
2022-08-27T11:48:41.038Z,101593.81
2022-08-27T11:51:14.463Z,101597.56
2022-08-27T11:54:00.081Z,101595.38
2022-08-27T11:56:28.480Z,101595.47
2022-08-27T11:59:28.486Z,101589.13
2022-08-27T12:02:10.675Z,101599.66
2022-08-27T12:04:42.480Z,101601.75
2022-08-27T12:07:13.957Z,101593.34
2022-08-27T12:09:51.432Z,101591.16
2022-08-27T12:12:36.911Z,101595.81
2022-08-27T12:15:17.677Z,101595.44
2022-08-27T12:18:13.758Z,101599.38
2022-08-27T12:21:06.441Z,101596.75
2022-08-27T12:23:49.872Z,101592.03
2022-08-27T12:26:35.413Z,101594.94
2022-08-27T12:29:34.214Z,101594.31
2022-08-27T12:32:36.071Z,101595.34
2022-08-27T12:35:29.358Z,101597.47
2022-08-27T12:38:21.034Z,101596.41
2022-08-27T12:40:53.173Z,101594.16
2022-08-27T12:43:27.505Z,101586.41
2022-08-27T12:48:44.042Z,101581.44
2022-08-27T12:51:18.628Z,101584.41
2022-08-27T12:53:57.832Z,101578.47
2022-08-27T12:56:34.593Z,101588.72
2022-08-27T12:59:20.820Z,101572.84
2022-08-27T13:01:58.310Z,101570.31
2022-08-27T13:04:31.039Z,101582.03
2022-08-27T13:06:59.801Z,101575.50
2022-08-27T13:09:31.934Z,101568.63
2022-08-27T13:12:03.060Z,101579.00
2022-08-27T13:14:38.276Z,101574.97
2022-08-27T13:17:15.408Z,101576.94
2022-08-27T13:19:58.162Z,101571.56
2022-08-27T13:22:35.990Z,101569.66
2022-08-27T13:25:06.345Z,101573.75
2022-08-27T13:27:37.513Z,101569.97
2022-08-27T13:30:08.898Z,101579.31
2022-08-27T13:32:39.166Z,101576.31
2022-08-27T13:35:11.664Z,101582.28
2022-08-27T13:37:45.020Z,101576.63
2022-08-27T13:40:32.780Z,101572.31
2022-08-27T13:43:13.570Z,101572.06
2022-08-27T13:45:42.590Z,101568.41
2022-08-27T13:48:12.869Z,101564.66
2022-08-27T13:50:49.360Z,101562.00
2022-08-27T13:53:42.304Z,101568.28
2022-08-27T13:56:11.607Z,101567.47
2022-08-27T13:58:40.098Z,101565.31
2022-08-27T14:01:10.086Z,101558.53
2022-08-27T14:03:55.299Z,101559.50
2022-08-27T14:06:45.191Z,101557.56
2022-08-27T14:09:28.118Z,101553.66
2022-08-27T14:12:06.588Z,101554.75
2022-08-27T14:14:41.138Z,101556.00
2022-08-27T14:17:35.110Z,101557.00
2022-08-27T14:20:06.848Z,101555.75
2022-08-27T14:22:38.029Z,101558.28
2022-08-27T14:25:06.985Z,101558.38
2022-08-27T14:27:39.304Z,101568.41
2022-08-27T14:30:16.921Z,101558.22
2022-08-27T14:32:45.761Z,101562.28
2022-08-27T14:35:16.598Z,101562.06
2022-08-27T14:37:54.632Z,101550.16
2022-08-27T14:40:23.478Z,101562.63
2022-08-27T14:42:52.487Z,101563.75
2022-08-27T14:45:23.193Z,101565.63
2022-08-27T14:47:52.744Z,101569.34
2022-08-27T14:50:21.872Z,101560.78
2022-08-27T14:52:50.323Z,101568.53
2022-08-27T14:55:18.888Z,101559.50
2022-08-27T14:57:47.617Z,101568.09
2022-08-27T15:00:17.226Z,101562.69
2022-08-27T15:02:48.324Z,101569.97
2022-08-27T15:05:19.687Z,101565.75
2022-08-27T15:08:04.450Z,101566.94
2022-08-27T15:10:33.329Z,101556.38
2022-08-27T15:13:02.925Z,101563.88
2022-08-27T15:15:31.512Z,101564.03
2022-08-27T15:17:59.994Z,101561.72
2022-08-27T15:20:28.443Z,101559.69
2022-08-27T15:22:57.192Z,101571.63
2022-08-27T15:25:26.028Z,101571.88
2022-08-27T15:27:54.501Z,101561.84
2022-08-27T15:30:27.251Z,101558.03
2022-08-27T15:32:56.360Z,101565.66
2022-08-27T15:35:27.437Z,101565.22
2022-08-27T15:37:57.903Z,101563.13
2022-08-27T15:40:32.721Z,101572.72
2022-08-27T15:43:05.252Z,101560.88
2022-08-27T15:45:34.684Z,101560.63
2022-08-27T15:48:04.048Z,101563.56
2022-08-27T15:50:34.316Z,101548.00
2022-08-27T15:53:08.096Z,101553.25
2022-08-27T15:55:41.457Z,101553.47
2022-08-27T15:58:12.979Z,101556.00
2022-08-27T16:00:44.300Z,101560.16
2022-08-27T16:03:14.762Z,101560.41
2022-08-27T16:05:46.171Z,101561.22
2022-08-27T16:08:14.715Z,101555.84
2022-08-27T16:10:44.292Z,101556.66
2022-08-27T16:13:12.814Z,101566.25
2022-08-27T16:15:41.866Z,101554.34
2022-08-27T16:18:12.042Z,101551.75
2022-08-27T16:20:42.442Z,101558.00
2022-08-27T16:23:11.006Z,101559.56
2022-08-27T16:25:40.312Z,101549.78
2022-08-27T16:28:08.864Z,101552.47
2022-08-27T16:30:40.906Z,101553.72
2022-08-27T16:33:11.294Z,101560.66
2022-08-27T16:35:39.914Z,101556.81
2022-08-27T16:38:09.749Z,101555.06
2022-08-27T16:40:48.786Z,101551.53
2022-08-27T16:43:23.041Z,101565.03
2022-08-27T16:45:53.658Z,101559.50
2022-08-27T16:48:42.610Z,101551.09
2022-08-27T16:51:24.188Z,101555.00
2022-08-27T16:53:52.889Z,101560.09
2022-08-27T16:56:28.702Z,101551.44
2022-08-27T16:59:00.444Z,101552.50
2022-08-27T17:01:30.051Z,101547.78
2022-08-27T17:04:14.510Z,101553.66
2022-08-27T17:06:45.145Z,101553.78
2022-08-27T17:09:14.116Z,101547.81
2022-08-27T17:11:46.409Z,101544.25
2022-08-27T17:14:16.113Z,101543.06
2022-08-27T17:16:48.366Z,101551.19
2022-08-27T17:19:18.670Z,101546.47
2022-08-27T17:21:47.218Z,101553.34
2022-08-27T17:24:15.866Z,101542.00
2022-08-27T17:26:45.425Z,101549.59
2022-08-27T17:29:13.965Z,101560.63
2022-08-27T17:31:43.650Z,101556.09
2022-08-27T17:34:22.100Z,101558.50
2022-08-27T17:36:55.756Z,101553.47
2022-08-27T17:39:24.203Z,101555.50
2022-08-27T17:41:53.420Z,101553.66
2022-08-27T17:44:31.734Z,101553.78
2022-08-27T17:47:02.933Z,101552.03
2022-08-27T17:49:33.088Z,101549.19
2022-08-27T17:52:05.393Z,101544.28
2022-08-27T17:54:41.181Z,101556.09
2022-08-27T17:57:41.015Z,101555.22
2022-08-27T18:00:14.482Z,101557.59
2022-08-27T18:02:46.657Z,101560.41
2022-08-27T18:05:18.815Z,101567.91
2022-08-27T18:07:48.906Z,101568.38
2022-08-27T18:10:23.762Z,101561.88
2022-08-27T18:12:55.220Z,101576.16
2022-08-27T18:15:30.258Z,101565.41
2022-08-27T18:17:59.423Z,101574.56
2022-08-27T18:20:30.329Z,101575.47
2022-08-27T18:23:00.200Z,101576.75
2022-08-27T18:25:35.766Z,101574.88
2022-08-27T18:28:08.057Z,101570.41
2022-08-27T18:30:39.447Z,101574.25
2022-08-27T18:33:08.744Z,101581.19
2022-08-27T18:35:38.699Z,101579.38
2022-08-27T18:38:07.526Z,101588.19
2022-08-27T18:40:40.607Z,101581.63
2022-08-27T18:43:09.244Z,101590.00
2022-08-27T18:45:39.332Z,101599.41
2022-08-27T18:48:21.640Z,101588.31
2022-08-27T18:50:55.556Z,101590.91
2022-08-27T18:53:26.057Z,101594.34
2022-08-27T18:55:54.962Z,101598.09
2022-08-27T18:58:23.935Z,101600.25
2022-08-27T19:00:55.934Z,101603.59
2022-08-27T19:03:33.945Z,101601.53
2022-08-27T19:06:09.675Z,101606.06
2022-08-27T19:08:39.659Z,101594.22
2022-08-27T19:11:08.431Z,101599.13
2022-08-27T19:13:37.247Z,101611.03
2022-08-27T19:16:13.592Z,101616.16
2022-08-27T19:18:43.035Z,101617.66
2022-08-27T19:21:12.611Z,101613.59
2022-08-27T19:23:42.323Z,101621.38
2022-08-27T19:26:18.104Z,101623.16
2022-08-27T19:28:47.572Z,101634.25
2022-08-27T19:31:16.636Z,101628.63
2022-08-27T19:33:45.298Z,101626.13
2022-08-27T19:36:16.140Z,101632.59
2022-08-27T19:38:46.478Z,101636.19
2022-08-27T19:41:15.094Z,101649.72
2022-08-27T19:43:45.963Z,101649.16
2022-08-27T19:46:18.277Z,101636.63
2022-08-27T19:48:47.505Z,101643.47
2022-08-27T19:51:17.296Z,101650.84
2022-08-27T19:53:45.970Z,101648.53
2022-08-27T19:56:15.135Z,101638.59
2022-08-27T19:58:44.643Z,101640.97
2022-08-27T20:01:13.195Z,101638.34
2022-08-27T20:03:41.735Z,101647.16
2022-08-27T20:06:11.754Z,101644.22
2022-08-27T20:08:40.194Z,101637.69
2022-08-27T20:11:08.650Z,101630.94
2022-08-27T20:13:37.990Z,101638.75
2022-08-27T20:16:17.065Z,101640.84
2022-08-27T20:18:47.677Z,101646.50
2022-08-27T20:21:17.156Z,101644.22
2022-08-27T20:23:45.826Z,101642.72
2022-08-27T20:26:14.358Z,101644.50
2022-08-27T20:28:43.258Z,101646.78
2022-08-27T20:31:12.544Z,101648.31
2022-08-27T20:33:41.314Z,101648.47
2022-08-27T20:36:11.858Z,101656.00
2022-08-27T20:38:40.438Z,101649.25
2022-08-27T20:41:12.064Z,101659.13
2022-08-27T20:43:40.514Z,101640.84
2022-08-27T20:46:10.990Z,101645.75
2022-08-27T20:48:39.602Z,101655.50
2022-08-27T20:51:09.145Z,101669.91
2022-08-27T20:53:37.736Z,101668.69
2022-08-27T20:56:06.430Z,101669.28
2022-08-27T20:58:54.617Z,101662.53
2022-08-27T21:01:23.617Z,101670.81
2022-08-27T21:03:52.201Z,101662.63
2022-08-27T21:06:24.963Z,101669.75
2022-08-27T21:08:54.891Z,101663.84
2022-08-27T21:11:23.863Z,101667.16
2022-08-27T21:13:56.450Z,101666.72
2022-08-27T21:16:26.001Z,101671.28
2022-08-27T21:18:55.723Z,101673.50
2022-08-27T21:21:24.322Z,101666.00
2022-08-27T21:23:53.206Z,101678.03
2022-08-27T21:26:22.962Z,101678.06
2022-08-27T21:28:55.608Z,101674.50
2022-08-27T21:31:25.612Z,101678.22
2022-08-27T21:33:54.383Z,101685.94
2022-08-27T21:36:22.877Z,101680.09
2022-08-27T21:38:51.618Z,101679.78
2022-08-27T21:41:20.652Z,101685.13
2022-08-27T21:43:49.689Z,101686.19
2022-08-27T21:46:19.860Z,101694.47
2022-08-27T21:48:58.502Z,101699.88
2022-08-27T21:51:28.006Z,101700.28
2022-08-27T21:53:57.620Z,101686.84
2022-08-27T21:56:26.967Z,101684.22
2022-08-27T21:58:55.740Z,101687.56
2022-08-27T22:01:24.323Z,101689.56
2022-08-27T22:03:52.940Z,101687.72
2022-08-27T22:06:21.630Z,101690.41
2022-08-27T22:08:50.258Z,101694.91
2022-08-27T22:11:23.962Z,101688.97
2022-08-27T22:13:53.267Z,101690.00
2022-08-27T22:16:21.943Z,101687.59
2022-08-27T22:18:54.989Z,101688.34
2022-08-27T22:21:24.459Z,101691.78
2022-08-27T22:23:53.207Z,101695.81
2022-08-27T22:26:22.162Z,101704.59
2022-08-27T22:28:50.857Z,101703.25
2022-08-27T22:31:19.727Z,101701.78
2022-08-27T22:33:48.436Z,101698.28
2022-08-27T22:36:19.139Z,101702.97
2022-08-27T22:38:48.715Z,101705.47
2022-08-27T22:41:18.582Z,101708.53
2022-08-27T22:43:47.280Z,101703.16
2022-08-27T22:46:16.022Z,101703.66
2022-08-27T22:48:44.842Z,101713.34
2022-08-27T22:51:13.625Z,101703.09
2022-08-27T22:53:42.156Z,101717.09
2022-08-27T22:56:10.580Z,101708.56
2022-08-27T22:58:40.637Z,101715.56
2022-08-27T23:01:24.684Z,101716.88
2022-08-27T23:03:54.061Z,101714.19
2022-08-27T23:06:22.625Z,101715.72
2022-08-27T23:08:51.551Z,101709.00
2022-08-27T23:11:21.025Z,101719.19
2022-08-27T23:13:51.741Z,101714.22
2022-08-27T23:16:20.768Z,101714.41
2022-08-27T23:18:49.237Z,101707.53
2022-08-27T23:21:17.684Z,101712.53
2022-08-27T23:23:46.269Z,101715.81
2022-08-27T23:26:33.377Z,101710.88
2022-08-27T23:29:01.883Z,101716.38
2022-08-27T23:31:30.388Z,101714.69
2022-08-27T23:33:58.904Z,101713.41
2022-08-27T23:36:29.263Z,101715.31
2022-08-27T23:38:58.417Z,101709.91
2022-08-27T23:41:27.234Z,101714.66
2022-08-27T23:43:55.778Z,101720.28
2022-08-27T23:46:24.744Z,101723.03
2022-08-27T23:48:53.357Z,101724.72
2022-08-27T23:51:21.930Z,101726.16
2022-08-27T23:53:50.407Z,101728.56
2022-08-27T23:56:18.829Z,101729.38
2022-08-27T23:58:48.363Z,101721.88
